sensor_id;sensor_type;location;lat;lon;timestamp;P1;durP1;ratioP1;P2;durP2;ratioP2
21519;SDS011;10921;53.614;9.882;2022-08-07T00:01:14;23.17;;;19.50;;
21519;SDS011;10921;53.614;9.882;2022-08-07T00:04:01;32.10;;;20.40;;
21519;SDS011;10921;53.614;9.882;2022-08-07T00:06:31;29.58;;;20.70;;
21519;SDS011;10921;53.614;9.882;2022-08-07T00:08:59;21.60;;;19.25;;
21519;SDS011;10921;53.614;9.882;2022-08-07T00:11:42;23.83;;;18.75;;
21519;SDS011;10921;53.614;9.882;2022-08-07T00:14:21;26.45;;;19.92;;
21519;SDS011;10921;53.614;9.882;2022-08-07T00:16:50;21.77;;;18.50;;
21519;SDS011;10921;53.614;9.882;2022-08-07T00:19:17;25.42;;;19.00;;
21519;SDS011;10921;53.614;9.882;2022-08-07T00:21:47;24.98;;;20.58;;
21519;SDS011;10921;53.614;9.882;2022-08-07T00:26:56;24.60;;;19.43;;
21519;SDS011;10921;53.614;9.882;2022-08-07T00:29:32;23.48;;;19.75;;
21519;SDS011;10921;53.614;9.882;2022-08-07T00:32:02;21.88;;;19.60;;
21519;SDS011;10921;53.614;9.882;2022-08-07T00:34:31;25.05;;;21.05;;
21519;SDS011;10921;53.614;9.882;2022-08-07T00:37:00;22.43;;;19.67;;
21519;SDS011;10921;53.614;9.882;2022-08-07T00:39:30;27.03;;;19.53;;
21519;SDS011;10921;53.614;9.882;2022-08-07T00:41:57;26.88;;;21.27;;
21519;SDS011;10921;53.614;9.882;2022-08-07T00:44:29;22.25;;;19.95;;
21519;SDS011;10921;53.614;9.882;2022-08-07T00:46:58;24.02;;;20.30;;
21519;SDS011;10921;53.614;9.882;2022-08-07T00:49:24;23.23;;;19.75;;
21519;SDS011;10921;53.614;9.882;2022-08-07T00:52:11;21.75;;;19.52;;
21519;SDS011;10921;53.614;9.882;2022-08-07T00:54:38;28.60;;;21.52;;
21519;SDS011;10921;53.614;9.882;2022-08-07T00:57:06;26.13;;;21.42;;
21519;SDS011;10921;53.614;9.882;2022-08-07T00:59:34;22.40;;;20.02;;
21519;SDS011;10921;53.614;9.882;2022-08-07T01:02:05;22.88;;;20.42;;
21519;SDS011;10921;53.614;9.882;2022-08-07T01:04:39;22.52;;;20.02;;
21519;SDS011;10921;53.614;9.882;2022-08-07T01:07:08;25.52;;;21.58;;
21519;SDS011;10921;53.614;9.882;2022-08-07T01:09:35;27.23;;;22.95;;
21519;SDS011;10921;53.614;9.882;2022-08-07T01:12:22;24.73;;;21.70;;
21519;SDS011;10921;53.614;9.882;2022-08-07T01:14:55;26.42;;;21.42;;
21519;SDS011;10921;53.614;9.882;2022-08-07T01:17:29;23.90;;;21.35;;
21519;SDS011;10921;53.614;9.882;2022-08-07T01:20:01;24.25;;;21.48;;
21519;SDS011;10921;53.614;9.882;2022-08-07T01:22:42;27.60;;;22.13;;
21519;SDS011;10921;53.614;9.882;2022-08-07T01:25:26;26.55;;;22.83;;
21519;SDS011;10921;53.614;9.882;2022-08-07T01:28:14;23.95;;;21.38;;
21519;SDS011;10921;53.614;9.882;2022-08-07T01:30:40;27.20;;;23.20;;
21519;SDS011;10921;53.614;9.882;2022-08-07T01:33:07;24.70;;;22.10;;
21519;SDS011;10921;53.614;9.882;2022-08-07T01:35:34;28.50;;;22.58;;
21519;SDS011;10921;53.614;9.882;2022-08-07T01:38:20;24.25;;;21.83;;
21519;SDS011;10921;53.614;9.882;2022-08-07T01:40:52;26.45;;;23.77;;
21519;SDS011;10921;53.614;9.882;2022-08-07T01:43:20;31.40;;;23.38;;
21519;SDS011;10921;53.614;9.882;2022-08-07T01:45:51;24.75;;;22.02;;
21519;SDS011;10921;53.614;9.882;2022-08-07T01:48:19;23.00;;;20.80;;
21519;SDS011;10921;53.614;9.882;2022-08-07T01:50:56;26.35;;;22.08;;
21519;SDS011;10921;53.614;9.882;2022-08-07T01:53:47;25.05;;;22.35;;
21519;SDS011;10921;53.614;9.882;2022-08-07T01:56:48;25.33;;;22.35;;
21519;SDS011;10921;53.614;9.882;2022-08-07T01:59:35;27.20;;;23.75;;
21519;SDS011;10921;53.614;9.882;2022-08-07T02:02:12;25.33;;;22.83;;
21519;SDS011;10921;53.614;9.882;2022-08-07T02:05:05;26.38;;;23.67;;
21519;SDS011;10921;53.614;9.882;2022-08-07T02:07:42;25.58;;;23.05;;
21519;SDS011;10921;53.614;9.882;2022-08-07T02:10:18;26.52;;;23.30;;
21519;SDS011;10921;53.614;9.882;2022-08-07T02:12:49;25.35;;;22.88;;
21519;SDS011;10921;53.614;9.882;2022-08-07T02:15:20;35.70;;;23.80;;
21519;SDS011;10921;53.614;9.882;2022-08-07T02:17:53;25.48;;;22.80;;
21519;SDS011;10921;53.614;9.882;2022-08-07T02:20:21;25.98;;;23.27;;
21519;SDS011;10921;53.614;9.882;2022-08-07T02:22:56;27.92;;;24.98;;
21519;SDS011;10921;53.614;9.882;2022-08-07T02:25:27;26.92;;;23.88;;
21519;SDS011;10921;53.614;9.882;2022-08-07T02:28:16;27.23;;;24.42;;
21519;SDS011;10921;53.614;9.882;2022-08-07T02:30:52;25.60;;;23.05;;
21519;SDS011;10921;53.614;9.882;2022-08-07T02:33:20;25.95;;;23.25;;
21519;SDS011;10921;53.614;9.882;2022-08-07T02:36:06;28.85;;;24.85;;
21519;SDS011;10921;53.614;9.882;2022-08-07T02:38:57;25.65;;;23.08;;
21519;SDS011;10921;53.614;9.882;2022-08-07T02:41:26;29.30;;;26.02;;
21519;SDS011;10921;53.614;9.882;2022-08-07T02:44:02;27.35;;;24.55;;
21519;SDS011;10921;53.614;9.882;2022-08-07T02:46:30;27.75;;;24.88;;
21519;SDS011;10921;53.614;9.882;2022-08-07T02:49:02;28.02;;;25.10;;
21519;SDS011;10921;53.614;9.882;2022-08-07T02:51:31;28.45;;;25.48;;
21519;SDS011;10921;53.614;9.882;2022-08-07T02:54:15;30.85;;;27.08;;
21519;SDS011;10921;53.614;9.882;2022-08-07T02:59:13;26.25;;;23.33;;
21519;SDS011;10921;53.614;9.882;2022-08-07T03:01:49;30.27;;;27.13;;
21519;SDS011;10921;53.614;9.882;2022-08-07T03:04:20;31.10;;;27.73;;
21519;SDS011;10921;53.614;9.882;2022-08-07T03:06:49;29.85;;;26.67;;
21519;SDS011;10921;53.614;9.882;2022-08-07T03:09:17;32.65;;;27.90;;
21519;SDS011;10921;53.614;9.882;2022-08-07T03:12:06;30.42;;;27.20;;
21519;SDS011;10921;53.614;9.882;2022-08-07T03:14:48;33.42;;;27.45;;
21519;SDS011;10921;53.614;9.882;2022-08-07T03:17:17;31.48;;;28.23;;
21519;SDS011;10921;53.614;9.882;2022-08-07T03:19:47;30.55;;;27.52;;
21519;SDS011;10921;53.614;9.882;2022-08-07T03:22:21;30.90;;;27.60;;
21519;SDS011;10921;53.614;9.882;2022-08-07T03:24:55;31.25;;;27.98;;
21519;SDS011;10921;53.614;9.882;2022-08-07T03:27:22;32.03;;;28.73;;
21519;SDS011;10921;53.614;9.882;2022-08-07T03:30:07;29.95;;;26.95;;
21519;SDS011;10921;53.614;9.882;2022-08-07T03:32:38;31.63;;;28.33;;
21519;SDS011;10921;53.614;9.882;2022-08-07T03:35:24;30.13;;;27.23;;
21519;SDS011;10921;53.614;9.882;2022-08-07T03:38:09;30.70;;;27.77;;
21519;SDS011;10921;53.614;9.882;2022-08-07T03:40:38;31.08;;;27.88;;
21519;SDS011;10921;53.614;9.882;2022-08-07T03:43:09;30.98;;;27.67;;
21519;SDS011;10921;53.614;9.882;2022-08-07T03:48:13;29.95;;;27.00;;
21519;SDS011;10921;53.614;9.882;2022-08-07T03:50:40;31.60;;;28.60;;
21519;SDS011;10921;53.614;9.882;2022-08-07T03:53:23;31.33;;;28.38;;
21519;SDS011;10921;53.614;9.882;2022-08-07T03:56:10;31.63;;;28.38;;
21519;SDS011;10921;53.614;9.882;2022-08-07T03:58:39;32.17;;;28.50;;
21519;SDS011;10921;53.614;9.882;2022-08-07T04:01:26;32.63;;;29.45;;
21519;SDS011;10921;53.614;9.882;2022-08-07T04:03:57;32.70;;;29.38;;
21519;SDS011;10921;53.614;9.882;2022-08-07T04:06:24;32.55;;;29.17;;
21519;SDS011;10921;53.614;9.882;2022-08-07T04:09:04;32.90;;;29.55;;
21519;SDS011;10921;53.614;9.882;2022-08-07T04:11:40;34.33;;;30.95;;
21519;SDS011;10921;53.614;9.882;2022-08-07T04:14:29;35.00;;;31.60;;
21519;SDS011;10921;53.614;9.882;2022-08-07T04:17:09;36.67;;;33.08;;
21519;SDS011;10921;53.614;9.882;2022-08-07T04:19:46;36.17;;;32.60;;
21519;SDS011;10921;53.614;9.882;2022-08-07T04:22:20;36.30;;;32.88;;
21519;SDS011;10921;53.614;9.882;2022-08-07T04:24:54;38.03;;;32.63;;
21519;SDS011;10921;53.614;9.882;2022-08-07T04:27:23;36.40;;;32.75;;
21519;SDS011;10921;53.614;9.882;2022-08-07T04:29:51;36.03;;;32.30;;
21519;SDS011;10921;53.614;9.882;2022-08-07T04:32:28;36.63;;;32.83;;
21519;SDS011;10921;53.614;9.882;2022-08-07T04:35:03;37.42;;;33.60;;
21519;SDS011;10921;53.614;9.882;2022-08-07T04:37:36;38.65;;;34.28;;
21519;SDS011;10921;53.614;9.882;2022-08-07T04:40:23;36.70;;;33.22;;
21519;SDS011;10921;53.614;9.882;2022-08-07T04:42:55;37.70;;;34.15;;
21519;SDS011;10921;53.614;9.882;2022-08-07T04:45:28;37.05;;;33.50;;
21519;SDS011;10921;53.614;9.882;2022-08-07T04:51:07;37.47;;;33.55;;
21519;SDS011;10921;53.614;9.882;2022-08-07T04:56:45;37.72;;;34.08;;
21519;SDS011;10921;53.614;9.882;2022-08-07T04:59:38;36.90;;;33.38;;
21519;SDS011;10921;53.614;9.882;2022-08-07T05:02:32;37.33;;;33.55;;
21519;SDS011;10921;53.614;9.882;2022-08-07T05:05:12;38.83;;;34.65;;
21519;SDS011;10921;53.614;9.882;2022-08-07T05:08:18;40.83;;;36.10;;
21519;SDS011;10921;53.614;9.882;2022-08-07T05:11:12;39.03;;;35.20;;
21519;SDS011;10921;53.614;9.882;2022-08-07T05:14:02;40.83;;;36.70;;
21519;SDS011;10921;53.614;9.882;2022-08-07T05:16:56;38.50;;;34.50;;
21519;SDS011;10921;53.614;9.882;2022-08-07T05:19:33;41.58;;;37.20;;
21519;SDS011;10921;53.614;9.882;2022-08-07T05:22:10;41.87;;;36.50;;
21519;SDS011;10921;53.614;9.882;2022-08-07T05:24:52;44.15;;;37.80;;
21519;SDS011;10921;53.614;9.882;2022-08-07T05:27:24;45.92;;;39.72;;
21519;SDS011;10921;53.614;9.882;2022-08-07T05:30:13;49.45;;;39.40;;
21519;SDS011;10921;53.614;9.882;2022-08-07T05:32:55;47.58;;;39.10;;
21519;SDS011;10921;53.614;9.882;2022-08-07T05:35:24;48.50;;;39.63;;
21519;SDS011;10921;53.614;9.882;2022-08-07T05:38:07;47.35;;;38.50;;
21519;SDS011;10921;53.614;9.882;2022-08-07T05:40:35;43.55;;;38.03;;
21519;SDS011;10921;53.614;9.882;2022-08-07T05:43:16;45.03;;;37.65;;
21519;SDS011;10921;53.614;9.882;2022-08-07T05:46:04;46.05;;;38.30;;
21519;SDS011;10921;53.614;9.882;2022-08-07T05:48:31;44.25;;;37.65;;
21519;SDS011;10921;53.614;9.882;2022-08-07T05:50:59;41.90;;;37.17;;
21519;SDS011;10921;53.614;9.882;2022-08-07T05:53:28;39.43;;;35.20;;
21519;SDS011;10921;53.614;9.882;2022-08-07T05:56:17;38.90;;;34.88;;
21519;SDS011;10921;53.614;9.882;2022-08-07T05:58:55;36.38;;;32.42;;
21519;SDS011;10921;53.614;9.882;2022-08-07T06:01:23;36.30;;;32.55;;
21519;SDS011;10921;53.614;9.882;2022-08-07T06:04:00;35.33;;;31.63;;
21519;SDS011;10921;53.614;9.882;2022-08-07T06:06:29;31.92;;;28.77;;
21519;SDS011;10921;53.614;9.882;2022-08-07T06:08:58;31.85;;;28.60;;
21519;SDS011;10921;53.614;9.882;2022-08-07T06:11:29;29.58;;;26.60;;
21519;SDS011;10921;53.614;9.882;2022-08-07T06:13:57;27.83;;;24.92;;
21519;SDS011;10921;53.614;9.882;2022-08-07T06:16:44;25.92;;;23.20;;
21519;SDS011;10921;53.614;9.882;2022-08-07T06:19:21;26.55;;;21.08;;
21519;SDS011;10921;53.614;9.882;2022-08-07T06:22:09;21.90;;;19.48;;
21519;SDS011;10921;53.614;9.882;2022-08-07T06:24:48;22.10;;;18.65;;
21519;SDS011;10921;53.614;9.882;2022-08-07T06:27:26;19.52;;;17.73;;
21519;SDS011;10921;53.614;9.882;2022-08-07T06:30:14;18.90;;;17.10;;
21519;SDS011;10921;53.614;9.882;2022-08-07T06:33:01;20.58;;;16.65;;
21519;SDS011;10921;53.614;9.882;2022-08-07T06:35:29;17.25;;;15.40;;
21519;SDS011;10921;53.614;9.882;2022-08-07T06:38:12;15.90;;;14.23;;
21519;SDS011;10921;53.614;9.882;2022-08-07T06:40:46;19.63;;;14.50;;
21519;SDS011;10921;53.614;9.882;2022-08-07T06:43:19;16.38;;;14.70;;
21519;SDS011;10921;53.614;9.882;2022-08-07T06:45:48;16.50;;;14.70;;
21519;SDS011;10921;53.614;9.882;2022-08-07T06:48:16;16.73;;;13.98;;
21519;SDS011;10921;53.614;9.882;2022-08-07T06:50:50;16.20;;;13.27;;
21519;SDS011;10921;53.614;9.882;2022-08-07T06:53:19;15.65;;;14.05;;
21519;SDS011;10921;53.614;9.882;2022-08-07T06:56:08;14.60;;;13.23;;
21519;SDS011;10921;53.614;9.882;2022-08-07T06:58:40;14.75;;;13.15;;
21519;SDS011;10921;53.614;9.882;2022-08-07T07:01:28;14.52;;;13.02;;
21519;SDS011;10921;53.614;9.882;2022-08-07T07:04:14;15.25;;;13.68;;
21519;SDS011;10921;53.614;9.882;2022-08-07T07:06:58;15.02;;;13.43;;
21519;SDS011;10921;53.614;9.882;2022-08-07T07:09:28;15.80;;;13.10;;
21519;SDS011;10921;53.614;9.882;2022-08-07T07:12:07;14.90;;;13.37;;
21519;SDS011;10921;53.614;9.882;2022-08-07T07:17:21;13.95;;;12.50;;
21519;SDS011;10921;53.614;9.882;2022-08-07T07:20:17;13.90;;;12.35;;
21519;SDS011;10921;53.614;9.882;2022-08-07T07:22:51;15.02;;;13.32;;
21519;SDS011;10921;53.614;9.882;2022-08-07T07:25:40;14.00;;;12.70;;
21519;SDS011;10921;53.614;9.882;2022-08-07T07:28:34;15.18;;;12.32;;
21519;SDS011;10921;53.614;9.882;2022-08-07T07:31:30;16.88;;;12.15;;
21519;SDS011;10921;53.614;9.882;2022-08-07T07:34:06;14.07;;;12.57;;
21519;SDS011;10921;53.614;9.882;2022-08-07T07:36:40;13.70;;;11.57;;
21519;SDS011;10921;53.614;9.882;2022-08-07T07:39:17;12.95;;;11.60;;
21519;SDS011;10921;53.614;9.882;2022-08-07T07:41:48;13.38;;;11.80;;
21519;SDS011;10921;53.614;9.882;2022-08-07T07:44:37;12.63;;;11.35;;
21519;SDS011;10921;53.614;9.882;2022-08-07T07:47:07;13.00;;;11.65;;
21519;SDS011;10921;53.614;9.882;2022-08-07T07:49:49;14.73;;;11.45;;
21519;SDS011;10921;53.614;9.882;2022-08-07T07:52:37;14.07;;;12.60;;
21519;SDS011;10921;53.614;9.882;2022-08-07T07:55:07;13.82;;;12.15;;
21519;SDS011;10921;53.614;9.882;2022-08-07T07:57:36;15.25;;;12.25;;
21519;SDS011;10921;53.614;9.882;2022-08-07T08:00:19;12.98;;;11.95;;
21519;SDS011;10921;53.614;9.882;2022-08-07T08:03:05;15.38;;;12.23;;
21519;SDS011;10921;53.614;9.882;2022-08-07T08:05:42;13.30;;;11.93;;
21519;SDS011;10921;53.614;9.882;2022-08-07T08:08:21;13.90;;;12.32;;
21519;SDS011;10921;53.614;9.882;2022-08-07T08:11:04;13.30;;;11.95;;
21519;SDS011;10921;53.614;9.882;2022-08-07T08:13:33;15.18;;;12.95;;
21519;SDS011;10921;53.614;9.882;2022-08-07T08:16:21;13.80;;;12.52;;
21519;SDS011;10921;53.614;9.882;2022-08-07T08:18:56;13.50;;;12.20;;
21519;SDS011;10921;53.614;9.882;2022-08-07T08:21:36;14.00;;;12.50;;
21519;SDS011;10921;53.614;9.882;2022-08-07T08:24:30;13.00;;;11.68;;
21519;SDS011;10921;53.614;9.882;2022-08-07T08:27:39;12.98;;;11.73;;
21519;SDS011;10921;53.614;9.882;2022-08-07T08:30:21;13.25;;;12.05;;
21519;SDS011;10921;53.614;9.882;2022-08-07T08:32:52;12.65;;;11.55;;
21519;SDS011;10921;53.614;9.882;2022-08-07T08:35:25;13.20;;;11.60;;
21519;SDS011;10921;53.614;9.882;2022-08-07T08:38:08;14.35;;;12.18;;
21519;SDS011;10921;53.614;9.882;2022-08-07T08:40:39;14.07;;;12.07;;
21519;SDS011;10921;53.614;9.882;2022-08-07T08:43:32;13.10;;;11.65;;
21519;SDS011;10921;53.614;9.882;2022-08-07T08:49:00;12.73;;;11.52;;
21519;SDS011;10921;53.614;9.882;2022-08-07T08:51:37;13.15;;;11.88;;
21519;SDS011;10921;53.614;9.882;2022-08-07T08:54:35;12.63;;;11.43;;
21519;SDS011;10921;53.614;9.882;2022-08-07T08:57:09;12.10;;;11.10;;
21519;SDS011;10921;53.614;9.882;2022-08-07T08:59:46;12.60;;;11.50;;
21519;SDS011;10921;53.614;9.882;2022-08-07T09:10:57;13.10;;;11.70;;
21519;SDS011;10921;53.614;9.882;2022-08-07T09:13:38;12.17;;;11.07;;
21519;SDS011;10921;53.614;9.882;2022-08-07T09:22:13;12.00;;;10.77;;
21519;SDS011;10921;53.614;9.882;2022-08-07T09:25:20;11.38;;;10.43;;
21519;SDS011;10921;53.614;9.882;2022-08-07T09:28:05;11.75;;;10.65;;
21519;SDS011;10921;53.614;9.882;2022-08-07T09:31:01;11.52;;;10.50;;
21519;SDS011;10921;53.614;9.882;2022-08-07T09:33:40;11.23;;;10.32;;
21519;SDS011;10921;53.614;9.882;2022-08-07T09:38:58;11.57;;;10.55;;
21519;SDS011;10921;53.614;9.882;2022-08-07T09:42:00;12.40;;;10.70;;
21519;SDS011;10921;53.614;9.882;2022-08-07T09:44:40;11.98;;;10.65;;
21519;SDS011;10921;53.614;9.882;2022-08-07T09:47:54;11.70;;;10.60;;
21519;SDS011;10921;53.614;9.882;2022-08-07T09:53:59;9.88;;;9.13;;
21519;SDS011;10921;53.614;9.882;2022-08-07T09:56:35;10.55;;;9.43;;
21519;SDS011;10921;53.614;9.882;2022-08-07T09:59:35;10.60;;;9.45;;
21519;SDS011;10921;53.614;9.882;2022-08-07T10:05:24;11.25;;;10.23;;
21519;SDS011;10921;53.614;9.882;2022-08-07T10:50:10;12.80;;;11.80;;
21519;SDS011;10921;53.614;9.882;2022-08-07T10:55:22;10.90;;;10.00;;
21519;SDS011;10921;53.614;9.882;2022-08-07T10:58:15;11.25;;;10.15;;
21519;SDS011;10921;53.614;9.882;2022-08-07T11:04:06;11.13;;;10.00;;
21519;SDS011;10921;53.614;9.882;2022-08-07T11:07:00;10.73;;;9.70;;
21519;SDS011;10921;53.614;9.882;2022-08-07T11:09:56;10.50;;;9.70;;
21519;SDS011;10921;53.614;9.882;2022-08-07T11:12:41;11.25;;;10.07;;
21519;SDS011;10921;53.614;9.882;2022-08-07T11:15:27;10.90;;;10.00;;
21519;SDS011;10921;53.614;9.882;2022-08-07T11:18:03;11.45;;;10.38;;
21519;SDS011;10921;53.614;9.882;2022-08-07T11:20:55;10.18;;;9.30;;
21519;SDS011;10921;53.614;9.882;2022-08-07T11:23:35;10.38;;;9.50;;
21519;SDS011;10921;53.614;9.882;2022-08-07T11:29:09;10.23;;;9.45;;
21519;SDS011;10921;53.614;9.882;2022-08-07T11:34:56;9.45;;;8.63;;
21519;SDS011;10921;53.614;9.882;2022-08-07T11:49:55;10.15;;;9.35;;
21519;SDS011;10921;53.614;9.882;2022-08-07T11:53:01;9.98;;;9.07;;
21519;SDS011;10921;53.614;9.882;2022-08-07T12:04:30;13.43;;;9.97;;
21519;SDS011;10921;53.614;9.882;2022-08-07T12:07:16;10.00;;;9.10;;
21519;SDS011;10921;53.614;9.882;2022-08-07T12:10:14;9.70;;;8.93;;
21519;SDS011;10921;53.614;9.882;2022-08-07T12:12:52;10.85;;;9.85;;
21519;SDS011;10921;53.614;9.882;2022-08-07T12:15:26;10.65;;;9.75;;
21519;SDS011;10921;53.614;9.882;2022-08-07T12:24:13;10.63;;;8.95;;
21519;SDS011;10921;53.614;9.882;2022-08-07T12:27:14;9.98;;;9.10;;
21519;SDS011;10921;53.614;9.882;2022-08-07T12:29:55;9.77;;;8.85;;
21519;SDS011;10921;53.614;9.882;2022-08-07T12:35:05;9.63;;;8.88;;
21519;SDS011;10921;53.614;9.882;2022-08-07T12:37:37;9.60;;;8.80;;
21519;SDS011;10921;53.614;9.882;2022-08-07T12:43:15;12.10;;;9.27;;
21519;SDS011;10921;53.614;9.882;2022-08-07T12:46:19;9.38;;;8.65;;
21519;SDS011;10921;53.614;9.882;2022-08-07T12:49:07;9.90;;;8.90;;
21519;SDS011;10921;53.614;9.882;2022-08-07T12:52:04;9.98;;;9.18;;
21519;SDS011;10921;53.614;9.882;2022-08-07T12:57:34;9.30;;;8.50;;
21519;SDS011;10921;53.614;9.882;2022-08-07T13:00:26;9.95;;;9.10;;
21519;SDS011;10921;53.614;9.882;2022-08-07T13:06:12;10.05;;;9.13;;
21519;SDS011;10921;53.614;9.882;2022-08-07T13:17:36;10.32;;;8.80;;
21519;SDS011;10921;53.614;9.882;2022-08-07T13:20:29;9.15;;;8.45;;
21519;SDS011;10921;53.614;9.882;2022-08-07T13:23:07;9.60;;;8.80;;
21519;SDS011;10921;53.614;9.882;2022-08-07T13:26:11;9.30;;;8.50;;
21519;SDS011;10921;53.614;9.882;2022-08-07T13:28:49;9.45;;;8.75;;
21519;SDS011;10921;53.614;9.882;2022-08-07T13:35:05;9.45;;;8.55;;
21519;SDS011;10921;53.614;9.882;2022-08-07T13:40:27;9.30;;;8.48;;
21519;SDS011;10921;53.614;9.882;2022-08-07T13:43:08;9.98;;;9.20;;
21519;SDS011;10921;53.614;9.882;2022-08-07T13:45:39;9.80;;;8.98;;
21519;SDS011;10921;53.614;9.882;2022-08-07T13:48:29;9.45;;;8.73;;
21519;SDS011;10921;53.614;9.882;2022-08-07T13:50:59;9.50;;;8.80;;
21519;SDS011;10921;53.614;9.882;2022-08-07T13:53:55;10.35;;;9.45;;
21519;SDS011;10921;53.614;9.882;2022-08-07T13:56:27;9.82;;;9.02;;
21519;SDS011;10921;53.614;9.882;2022-08-07T13:59:07;10.38;;;8.77;;
21519;SDS011;10921;53.614;9.882;2022-08-07T14:01:51;9.88;;;8.98;;
21519;SDS011;10921;53.614;9.882;2022-08-07T14:04:30;9.35;;;8.65;;
21519;SDS011;10921;53.614;9.882;2022-08-07T14:07:04;8.75;;;8.15;;
21519;SDS011;10921;53.614;9.882;2022-08-07T14:09:35;9.73;;;8.98;;
21519;SDS011;10921;53.614;9.882;2022-08-07T14:12:28;9.52;;;8.73;;
21519;SDS011;10921;53.614;9.882;2022-08-07T14:15:06;9.65;;;8.77;;
21519;SDS011;10921;53.614;9.882;2022-08-07T14:17:37;9.80;;;9.00;;
21519;SDS011;10921;53.614;9.882;2022-08-07T14:20:28;9.40;;;8.80;;
21519;SDS011;10921;53.614;9.882;2022-08-07T14:23:19;9.85;;;8.77;;
21519;SDS011;10921;53.614;9.882;2022-08-07T14:26:09;9.68;;;8.88;;
21519;SDS011;10921;53.614;9.882;2022-08-07T14:28:55;9.07;;;8.38;;
21519;SDS011;10921;53.614;9.882;2022-08-07T14:31:35;9.45;;;8.65;;
21519;SDS011;10921;53.614;9.882;2022-08-07T14:34:18;10.07;;;9.07;;
21519;SDS011;10921;53.614;9.882;2022-08-07T14:36:55;9.15;;;8.45;;
21519;SDS011;10921;53.614;9.882;2022-08-07T14:39:30;9.27;;;8.57;;
21519;SDS011;10921;53.614;9.882;2022-08-07T14:42:21;9.18;;;8.38;;
21519;SDS011;10921;53.614;9.882;2022-08-07T14:44:57;9.23;;;8.50;;
21519;SDS011;10921;53.614;9.882;2022-08-07T14:47:46;8.52;;;7.93;;
21519;SDS011;10921;53.614;9.882;2022-08-07T14:50:14;8.65;;;8.05;;
21519;SDS011;10921;53.614;9.882;2022-08-07T14:52:45;9.05;;;8.15;;
21519;SDS011;10921;53.614;9.882;2022-08-07T14:55:15;8.88;;;8.18;;
21519;SDS011;10921;53.614;9.882;2022-08-07T14:57:45;8.48;;;7.88;;
21519;SDS011;10921;53.614;9.882;2022-08-07T15:00:34;8.85;;;7.93;;
21519;SDS011;10921;53.614;9.882;2022-08-07T15:03:05;8.80;;;8.05;;
21519;SDS011;10921;53.614;9.882;2022-08-07T15:05:45;8.57;;;7.78;;
21519;SDS011;10921;53.614;9.882;2022-08-07T15:08:33;9.02;;;8.32;;
21519;SDS011;10921;53.614;9.882;2022-08-07T15:11:18;9.18;;;8.27;;
21519;SDS011;10921;53.614;9.882;2022-08-07T15:14:10;9.70;;;8.68;;
21519;SDS011;10921;53.614;9.882;2022-08-07T15:19:33;9.60;;;8.80;;
21519;SDS011;10921;53.614;9.882;2022-08-07T15:24:59;9.38;;;8.57;;
21519;SDS011;10921;53.614;9.882;2022-08-07T15:27:46;9.27;;;8.05;;
21519;SDS011;10921;53.614;9.882;2022-08-07T15:30:35;9.90;;;8.27;;
21519;SDS011;10921;53.614;9.882;2022-08-07T15:33:22;9.13;;;8.35;;
21519;SDS011;10921;53.614;9.882;2022-08-07T15:36:01;9.02;;;8.32;;
21519;SDS011;10921;53.614;9.882;2022-08-07T15:38:32;8.63;;;7.95;;
21519;SDS011;10921;53.614;9.882;2022-08-07T15:41:21;8.82;;;8.13;;
21519;SDS011;10921;53.614;9.882;2022-08-07T15:44:09;8.95;;;8.15;;
21519;SDS011;10921;53.614;9.882;2022-08-07T15:46:40;8.65;;;7.95;;
21519;SDS011;10921;53.614;9.882;2022-08-07T15:49:29;8.60;;;7.88;;
21519;SDS011;10921;53.614;9.882;2022-08-07T15:52:19;9.05;;;8.35;;
21519;SDS011;10921;53.614;9.882;2022-08-07T15:54:57;8.13;;;7.53;;
21519;SDS011;10921;53.614;9.882;2022-08-07T15:57:28;8.45;;;7.85;;
21519;SDS011;10921;53.614;9.882;2022-08-07T16:00:14;9.20;;;8.25;;
21519;SDS011;10921;53.614;9.882;2022-08-07T16:02:58;9.88;;;8.75;;
21519;SDS011;10921;53.614;9.882;2022-08-07T16:05:28;10.02;;;9.10;;
21519;SDS011;10921;53.614;9.882;2022-08-07T16:07:57;9.40;;;8.60;;
21519;SDS011;10921;53.614;9.882;2022-08-07T16:10:58;9.48;;;8.65;;
21519;SDS011;10921;53.614;9.882;2022-08-07T16:13:36;8.75;;;8.05;;
21519;SDS011;10921;53.614;9.882;2022-08-07T16:16:40;9.10;;;8.40;;
21519;SDS011;10921;53.614;9.882;2022-08-07T16:19:43;8.93;;;8.23;;
21519;SDS011;10921;53.614;9.882;2022-08-07T16:25:43;9.63;;;8.83;;
21519;SDS011;10921;53.614;9.882;2022-08-07T16:43:42;10.27;;;9.02;;
21519;SDS011;10921;53.614;9.882;2022-08-07T16:47:05;9.68;;;8.88;;
21519;SDS011;10921;53.614;9.882;2022-08-07T16:53:02;9.80;;;8.93;;
21519;SDS011;10921;53.614;9.882;2022-08-07T17:01:56;9.80;;;9.00;;
21519;SDS011;10921;53.614;9.882;2022-08-07T17:04:39;10.23;;;9.45;;
21519;SDS011;10921;53.614;9.882;2022-08-07T17:07:30;9.75;;;9.02;;
21519;SDS011;10921;53.614;9.882;2022-08-07T17:10:21;9.45;;;8.60;;
21519;SDS011;10921;53.614;9.882;2022-08-07T17:16:08;9.50;;;8.60;;
21519;SDS011;10921;53.614;9.882;2022-08-07T17:19:02;10.25;;;8.65;;
21519;SDS011;10921;53.614;9.882;2022-08-07T17:22:17;9.30;;;8.57;;
21519;SDS011;10921;53.614;9.882;2022-08-07T17:25:15;9.55;;;8.75;;
21519;SDS011;10921;53.614;9.882;2022-08-07T17:28:08;9.25;;;8.45;;
21519;SDS011;10921;53.614;9.882;2022-08-07T17:30:55;11.57;;;8.60;;
21519;SDS011;10921;53.614;9.882;2022-08-07T17:33:46;11.23;;;9.48;;
21519;SDS011;10921;53.614;9.882;2022-08-07T17:36:41;10.30;;;9.50;;
21519;SDS011;10921;53.614;9.882;2022-08-07T17:39:29;9.70;;;9.00;;
21519;SDS011;10921;53.614;9.882;2022-08-07T17:42:30;10.88;;;9.98;;
21519;SDS011;10921;53.614;9.882;2022-08-07T17:45:29;11.82;;;10.82;;
21519;SDS011;10921;53.614;9.882;2022-08-07T17:48:04;12.20;;;11.20;;
21519;SDS011;10921;53.614;9.882;2022-08-07T17:50:43;11.57;;;10.38;;
21519;SDS011;10921;53.614;9.882;2022-08-07T17:53:59;11.07;;;10.10;;
21519;SDS011;10921;53.614;9.882;2022-08-07T17:57:10;12.00;;;10.25;;
21519;SDS011;10921;53.614;9.882;2022-08-07T18:00:11;11.35;;;10.35;;
21519;SDS011;10921;53.614;9.882;2022-08-07T18:04:04;10.63;;;9.77;;
21519;SDS011;10921;53.614;9.882;2022-08-07T18:06:22;10.93;;;9.88;;
21519;SDS011;10921;53.614;9.882;2022-08-07T18:09:04;11.00;;;10.20;;
21519;SDS011;10921;53.614;9.882;2022-08-07T18:12:38;10.70;;;9.63;;
21519;SDS011;10921;53.614;9.882;2022-08-07T18:15:01;10.00;;;9.18;;
21519;SDS011;10921;53.614;9.882;2022-08-07T18:17:41;10.25;;;9.35;;
21519;SDS011;10921;53.614;9.882;2022-08-07T18:21:01;10.32;;;9.48;;
21519;SDS011;10921;53.614;9.882;2022-08-07T18:30:06;10.40;;;9.60;;
21519;SDS011;10921;53.614;9.882;2022-08-07T18:36:16;10.60;;;9.70;;
21519;SDS011;10921;53.614;9.882;2022-08-07T18:45:12;10.70;;;9.80;;
21519;SDS011;10921;53.614;9.882;2022-08-07T18:48:12;10.93;;;9.98;;
21519;SDS011;10921;53.614;9.882;2022-08-07T18:51:54;11.25;;;10.25;;
21519;SDS011;10921;53.614;9.882;2022-08-07T18:57:11;11.52;;;10.43;;
21519;SDS011;10921;53.614;9.882;2022-08-07T19:00:06;11.68;;;10.68;;
21519;SDS011;10921;53.614;9.882;2022-08-07T19:05:50;11.40;;;10.40;;
21519;SDS011;10921;53.614;9.882;2022-08-07T19:08:36;11.20;;;10.30;;
21519;SDS011;10921;53.614;9.882;2022-08-07T19:11:17;12.80;;;10.82;;
21519;SDS011;10921;53.614;9.882;2022-08-07T19:16:47;11.10;;;10.20;;
21519;SDS011;10921;53.614;9.882;2022-08-07T19:23:06;11.27;;;10.43;;
21519;SDS011;10921;53.614;9.882;2022-08-07T19:25:45;11.80;;;10.90;;